Time;durP1;ratioP1;P1;durP2;ratioP2;P2;SDS_P1;SDS_P2;PMS_P1;PMS_P2;Temp;Humidity;BMP_temperature;BMP_pressure;BME280_temperature;BME280_humidity;BME280_pressure;Samples;Min_cycle;Max_cycle;Signal;HPM_P1;HPM_P2
2021/05/03 00:00:08;;;;;;;5.43;0.77;;;5.90;89.70;;;;;;5089677;28;20510;-84
2021/05/03 00:02:35;;;;;;;2.40;0.60;;;5.90;89.70;;;;;;5103416;28;20066;-85
2021/05/03 00:05:04;;;;;;;2.93;0.60;;;5.90;89.70;;;;;;5069126;28;20238;-84
2021/05/03 00:07:31;;;;;;;2.33;0.63;;;5.90;89.80;;;;;;5068976;28;20039;-85
2021/05/03 00:09:58;;;;;;;1.33;0.50;;;5.90;89.70;;;;;;5083793;28;20042;-80
2021/05/03 00:12:24;;;;;;;2.40;0.80;;;5.90;89.70;;;;;;5070823;28;20043;-80
2021/05/03 00:14:51;;;;;;;1.73;0.60;;;5.80;89.80;;;;;;5103777;28;20060;-80
2021/05/03 00:17:18;;;;;;;4.77;0.50;;;5.80;90.00;;;;;;5105178;28;20039;-80
2021/05/03 00:19:44;;;;;;;2.50;0.60;;;5.80;90.10;;;;;;5085524;28;20042;-80
2021/05/03 00:22:11;;;;;;;3.63;0.83;;;5.70;90.10;;;;;;5086140;28;20043;-80
2021/05/03 00:24:38;;;;;;;1.43;0.60;;;5.70;90.20;;;;;;5087815;28;20032;-80
2021/05/03 00:27:05;;;;;;;1.87;0.70;;;5.60;90.30;;;;;;5051891;28;20036;-80
2021/05/03 00:29:32;;;;;;;1.40;0.70;;;5.60;90.30;;;;;;5082174;28;20402;-80
2021/05/03 00:32:09;;;;;;;1.23;0.67;;;5.60;90.40;;;;;;5058761;28;20048;-80
2021/05/03 00:34:36;;;;;;;3.17;0.87;;;5.50;90.40;;;;;;5084240;28;20422;-80
2021/05/03 00:37:02;;;;;;;2.70;0.90;;;5.50;90.50;;;;;;5087726;28;20035;-80
2021/05/03 00:39:28;;;;;;;1.90;0.67;;;5.50;90.60;;;;;;5084771;28;20040;-80
2021/05/03 00:41:55;;;;;;;1.73;0.80;;;5.40;90.60;;;;;;5071046;28;20058;-80
2021/05/03 00:44:24;;;;;;;1.70;0.90;;;5.40;90.60;;;;;;5084681;28;20043;-80
2021/05/03 00:46:52;;;;;;;2.90;1.23;;;5.30;90.70;;;;;;5104751;28;20054;-80
2021/05/03 00:49:19;;;;;;;2.27;0.90;;;5.30;90.80;;;;;;5100084;28;20048;-80
2021/05/03 00:51:45;;;;;;;3.53;1.10;;;5.20;90.90;;;;;;5086472;28;20052;-80
2021/05/03 00:54:12;;;;;;;2.17;0.87;;;5.20;91.00;;;;;;5068772;28;20055;-80
2021/05/03 00:56:38;;;;;;;1.83;0.80;;;5.10;91.00;;;;;;5086412;28;20060;-80
2021/05/03 00:59:07;;;;;;;4.23;1.03;;;5.10;91.00;;;;;;5064759;28;20055;-80
2021/05/03 01:01:34;;;;;;;3.20;1.03;;;5.00;91.10;;;;;;5087556;28;20053;-80
2021/05/03 01:04:01;;;;;;;1.70;1.10;;;5.00;91.20;;;;;;5091248;28;20912;-80
2021/05/03 01:06:27;;;;;;;2.23;0.90;;;5.00;91.30;;;;;;5089799;28;20043;-80
2021/05/03 01:08:54;;;;;;;2.97;1.23;;;4.90;91.30;;;;;;5071913;28;20032;-81
2021/05/03 01:11:20;;;;;;;4.03;1.40;;;4.90;91.40;;;;;;5088464;28;20047;-81
2021/05/03 01:13:47;;;;;;;2.93;1.63;;;4.90;91.50;;;;;;5057445;28;20047;-81
2021/05/03 01:16:13;;;;;;;3.63;1.83;;;4.90;91.50;;;;;;5088971;28;20047;-81
2021/05/03 01:18:40;;;;;;;2.73;1.80;;;4.90;91.60;;;;;;5105018;28;20042;-82
2021/05/03 01:21:07;;;;;;;4.10;3.03;;;4.90;91.60;;;;;;5073549;28;20046;-82
2021/05/03 01:23:34;;;;;;;5.20;2.27;;;4.80;91.60;;;;;;5089230;28;20406;-80
2021/05/03 01:26:01;;;;;;;3.67;2.00;;;4.80;91.70;;;;;;5106951;28;20151;-80
2021/05/03 01:28:28;;;;;;;4.70;2.70;;;4.80;91.80;;;;;;5105350;28;20043;-80
2021/05/03 01:30:55;;;;;;;4.97;2.43;;;4.70;91.80;;;;;;5073849;28;20490;-80
2021/05/03 01:33:22;;;;;;;7.77;1.80;;;4.70;91.90;;;;;;5094002;28;20051;-81
2021/05/03 01:35:49;;;;;;;3.80;2.57;;;4.70;92.00;;;;;;5055552;28;20047;-83
2021/05/03 01:38:15;;;;;;;6.47;1.80;;;4.70;92.00;;;;;;5105727;28;20105;-81
2021/05/03 01:40:43;;;;;;;3.80;1.50;;;4.70;92.00;;;;;;5090434;28;20036;-81
2021/05/03 01:43:23;;;;;;;3.17;1.70;;;4.70;92.00;;;;;;5040130;28;20514;-81
2021/05/03 01:45:53;;;;;;;4.50;1.60;;;4.60;92.00;;;;;;5090142;28;20047;-81
2021/05/03 01:48:23;;;;;;;3.60;1.93;;;4.60;92.10;;;;;;5107091;28;20509;-80
2021/05/03 01:50:50;;;;;;;3.03;1.60;;;4.50;92.10;;;;;;5070932;28;20121;-82
2021/05/03 01:53:17;;;;;;;3.77;1.63;;;4.50;92.30;;;;;;5090149;28;20059;-82
2021/05/03 01:55:47;;;;;;;3.93;2.07;;;4.50;92.30;;;;;;5072780;28;20375;-82
2021/05/03 01:58:14;;;;;;;4.03;1.77;;;4.50;92.30;;;;;;5089254;28;20032;-83
2021/05/03 02:00:41;;;;;;;4.83;2.17;;;4.40;92.30;;;;;;5091184;28;20054;-82
2021/05/03 02:03:26;;;;;;;5.83;2.00;;;4.40;92.40;;;;;;5093203;28;20504;-82
2021/05/03 02:06:02;;;;;;;3.88;2.28;;;4.30;92.50;;;;;;5087794;28;20044;-82
2021/05/03 02:08:31;;;;;;;4.03;1.93;;;4.30;92.60;;;;;;5083283;28;20110;-82
2021/05/03 02:10:58;;;;;;;4.23;2.53;;;4.30;92.50;;;;;;5078460;28;20039;-83
2021/05/03 02:13:24;;;;;;;2.67;1.90;;;4.20;92.50;;;;;;5071826;28;20061;-81
2021/05/03 02:15:51;;;;;;;3.03;1.90;;;4.20;92.60;;;;;;5090555;28;20035;-83
2021/05/03 02:18:18;;;;;;;3.03;1.97;;;4.10;92.50;;;;;;5083367;28;20039;-83
2021/05/03 02:20:45;;;;;;;3.33;2.33;;;4.20;92.60;;;;;;5107327;28;20039;-83
2021/05/03 02:23:13;;;;;;;3.50;2.53;;;4.10;92.70;;;;;;5073023;28;20039;-82
2021/05/03 02:25:39;;;;;;;2.73;1.93;;;4.10;92.80;;;;;;5088212;28;20038;-83
2021/05/03 02:28:06;;;;;;;4.03;2.73;;;4.10;92.80;;;;;;5089443;28;20042;-82
2021/05/03 02:30:33;;;;;;;4.97;2.20;;;4.10;92.80;;;;;;5083107;28;20048;-83
2021/05/03 02:33:00;;;;;;;4.83;3.00;;;4.10;92.80;;;;;;5107015;28;20036;-83
2021/05/03 02:35:32;;;;;;;6.13;2.97;;;4.00;92.80;;;;;;5075793;28;20043;-82
2021/05/03 02:38:00;;;;;;;4.77;2.43;;;4.00;92.90;;;;;;5106572;28;20040;-82
2021/05/03 02:40:28;;;;;;;4.37;2.63;;;4.00;93.00;;;;;;5087568;28;20038;-83
2021/05/03 02:42:57;;;;;;;4.73;3.10;;;4.00;93.00;;;;;;5105961;28;20044;-83
2021/05/03 02:45:25;;;;;;;4.17;3.27;;;4.00;93.10;;;;;;5104071;28;20094;-83
2021/05/03 02:47:52;;;;;;;5.77;3.60;;;4.00;93.20;;;;;;5106296;28;20051;-83
2021/05/03 02:50:21;;;;;;;5.87;3.37;;;4.00;93.20;;;;;;5071230;28;20050;-83
2021/05/03 02:52:50;;;;;;;4.83;3.60;;;4.00;93.30;;;;;;5106482;28;20058;-83
2021/05/03 02:55:17;;;;;;;5.30;3.27;;;4.00;93.30;;;;;;5070591;28;20034;-83
2021/05/03 02:57:45;;;;;;;6.53;3.77;;;4.00;93.30;;;;;;5084861;28;20048;-83
2021/05/03 03:00:15;;;;;;;6.70;3.93;;;4.00;93.30;;;;;;5074887;28;20032;-83
2021/05/03 03:02:42;;;;;;;5.40;3.90;;;4.00;93.30;;;;;;5089415;28;20406;-83
2021/05/03 03:05:09;;;;;;;5.93;4.10;;;4.00;93.40;;;;;;5084493;28;20053;-83
2021/05/03 03:07:36;;;;;;;5.53;4.00;;;4.00;93.40;;;;;;5089631;28;20031;-83
2021/05/03 03:10:03;;;;;;;4.87;3.67;;;4.00;93.50;;;;;;5068009;28;20032;-85
2021/05/03 03:12:32;;;;;;;6.77;3.37;;;4.00;93.50;;;;;;5105694;28;20027;-80
2021/05/03 03:14:59;;;;;;;4.57;3.03;;;4.00;93.40;;;;;;5101175;28;20083;-84
2021/05/03 03:17:26;;;;;;;4.70;3.60;;;3.90;93.30;;;;;;5104348;28;20058;-86
2021/05/03 03:19:52;;;;;;;3.93;3.20;;;3.90;93.40;;;;;;5086000;28;20051;-86
2021/05/03 03:22:19;;;;;;;8.00;4.03;;;3.90;93.40;;;;;;5084901;28;20493;-86
2021/05/03 03:24:45;;;;;;;6.47;4.23;;;3.90;93.40;;;;;;5068352;28;20501;-85
2021/05/03 03:27:12;;;;;;;9.23;6.47;;;3.90;93.50;;;;;;5070591;28;20047;-86
2021/05/03 03:29:38;;;;;;;10.07;6.63;;;3.90;93.60;;;;;;5084527;28;20043;-85
2021/05/03 03:32:05;;;;;;;11.53;8.27;;;3.80;93.50;;;;;;5054325;28;20506;-85
2021/05/03 03:34:32;;;;;;;9.40;6.83;;;3.80;93.60;;;;;;5102063;28;20508;-84
2021/05/03 03:36:58;;;;;;;7.67;5.50;;;3.80;93.70;;;;;;5054313;28;20051;-84
2021/05/03 03:39:25;;;;;;;9.23;5.60;;;3.80;93.70;;;;;;5085239;28;20051;-80
2021/05/03 03:41:51;;;;;;;7.90;5.87;;;3.80;93.70;;;;;;5078346;28;20039;-80
2021/05/03 03:44:18;;;;;;;7.50;5.47;;;3.90;93.80;;;;;;5073823;28;20034;-81
2021/05/03 03:46:44;;;;;;;8.30;5.90;;;3.80;93.80;;;;;;5087663;28;20047;-80
2021/05/03 03:49:11;;;;;;;6.10;5.07;;;3.80;93.90;;;;;;5070577;28;20044;-80
2021/05/03 03:51:38;;;;;;;7.07;4.80;;;3.80;93.90;;;;;;5069982;28;20040;-80
2021/05/03 03:54:05;;;;;;;8.03;6.10;;;3.80;94.00;;;;;;5101150;28;20051;-82
2021/05/03 03:56:32;;;;;;;7.63;5.40;;;3.80;94.10;;;;;;5070317;28;20466;-82
2021/05/03 03:58:59;;;;;;;8.63;5.77;;;3.80;94.10;;;;;;5069465;28;20499;-82
2021/05/03 04:01:26;;;;;;;7.87;4.90;;;3.80;94.10;;;;;;5105461;28;20044;-82
2021/05/03 04:03:56;;;;;;;8.33;5.53;;;3.90;94.10;;;;;;5053285;28;20036;-82
2021/05/03 04:14:09;;;;;;;7.03;5.23;;;4.00;94.10;;;;;;5103236;28;20490;-82
2021/05/03 04:27:25;;;;;;;5.90;4.83;;;4.10;94.10;;;;;;5085031;28;20056;-83
2021/05/03 04:29:52;;;;;;;6.43;5.73;;;4.10;94.10;;;;;;5085796;28;20528;-82
2021/05/03 04:32:18;;;;;;;5.00;4.40;;;4.10;94.10;;;;;;5073588;28;20429;-82
2021/05/03 04:34:45;;;;;;;9.50;5.77;;;4.10;94.20;;;;;;5085607;28;20055;-83
2021/05/03 04:37:11;;;;;;;6.67;4.70;;;4.20;94.20;;;;;;5056415;28;20047;-83
2021/05/03 04:39:38;;;;;;;6.47;4.60;;;4.20;94.20;;;;;;5072355;28;20123;-82
2021/05/03 04:42:04;;;;;;;7.60;4.60;;;4.20;94.20;;;;;;5072612;28;20165;-81
2021/05/03 04:44:31;;;;;;;6.07;3.83;;;4.30;94.20;;;;;;5058311;28;20047;-82
2021/05/03 04:46:57;;;;;;;8.03;6.10;;;4.40;94.10;;;;;;5060470;28;20036;-83
2021/05/03 04:49:24;;;;;;;10.40;4.80;;;4.40;94.10;;;;;;5090401;28;20044;-79
2021/05/03 04:51:50;;;;;;;8.30;6.10;;;4.50;94.00;;;;;;5108790;28;20036;-83
2021/05/03 04:54:17;;;;;;;6.63;4.57;;;4.60;94.00;;;;;;5109293;28;20048;-84
2021/05/03 04:56:43;;;;;;;8.43;6.07;;;4.70;93.90;;;;;;5108458;28;20543;-84
2021/05/03 04:59:10;;;;;;;9.00;6.80;;;4.80;93.80;;;;;;5070890;28;20055;-83
2021/05/03 05:01:36;;;;;;;10.47;7.40;;;4.90;93.80;;;;;;5075082;28;20040;-83
2021/05/03 05:04:03;;;;;;;8.60;6.63;;;5.00;93.70;;;;;;5073041;28;20478;-84
2021/05/03 05:06:30;;;;;;;7.67;6.77;;;5.00;93.70;;;;;;5091146;28;20040;-84
2021/05/03 05:08:56;;;;;;;10.50;6.63;;;5.20;93.60;;;;;;5084781;28;20036;-85
2021/05/03 05:11:23;;;;;;;6.97;4.90;;;5.20;93.60;;;;;;5041521;28;20039;-82
2021/05/03 05:13:49;;;;;;;9.73;6.87;;;5.40;93.50;;;;;;5107038;28;20382;-84
2021/05/03 05:16:16;;;;;;;10.17;7.57;;;5.40;93.40;;;;;;5107774;28;20042;-84
2021/05/03 05:18:42;;;;;;;9.23;7.80;;;5.50;93.40;;;;;;5069604;28;20031;-84
2021/05/03 05:21:09;;;;;;;10.97;7.60;;;5.60;93.30;;;;;;5091104;28;20036;-84
2021/05/03 05:23:36;;;;;;;9.90;8.23;;;5.70;93.30;;;;;;5107315;28;20036;-84
2021/05/03 05:26:02;;;;;;;8.93;7.00;;;5.70;93.20;;;;;;5106756;28;20115;-84
2021/05/03 05:28:29;;;;;;;9.53;7.20;;;5.80;93.20;;;;;;5105640;28;20051;-84
2021/05/03 05:30:56;;;;;;;11.13;6.83;;;5.90;93.20;;;;;;5105983;28;20470;-84
2021/05/03 05:33:22;;;;;;;10.33;6.70;;;5.90;93.10;;;;;;5088103;28;20048;-84
2021/05/03 05:35:49;;;;;;;10.57;8.23;;;6.00;93.00;;;;;;5070116;28;20035;-84
2021/05/03 05:38:15;;;;;;;10.07;7.43;;;6.00;92.90;;;;;;5087342;28;20040;-82
2021/05/03 05:40:42;;;;;;;10.63;7.67;;;6.10;92.90;;;;;;5083965;28;20031;-84
2021/05/03 05:43:09;;;;;;;9.00;6.40;;;6.20;92.70;;;;;;5101023;28;20036;-84
2021/05/03 05:45:35;;;;;;;11.03;7.27;;;6.20;92.60;;;;;;5105119;28;20061;-84
2021/05/03 05:48:02;;;;;;;10.97;7.80;;;6.30;92.50;;;;;;5100512;28;20044;-84
2021/05/03 05:50:29;;;;;;;12.60;7.20;;;6.40;92.30;;;;;;5087056;28;20040;-84
2021/05/03 05:52:56;;;;;;;7.77;6.30;;;6.40;92.10;;;;;;5087515;28;20047;-84
2021/05/03 05:55:23;;;;;;;9.83;6.47;;;6.50;92.00;;;;;;5087870;28;20035;-84
2021/05/03 05:57:50;;;;;;;8.43;6.67;;;6.60;92.00;;;;;;5103904;28;21085;-85
2021/05/03 06:00:17;;;;;;;13.20;8.27;;;6.60;91.80;;;;;;5083977;28;20517;-85
2021/05/03 06:02:44;;;;;;;10.07;6.87;;;6.70;91.50;;;;;;5103598;28;20054;-84
2021/05/03 06:05:11;;;;;;;13.57;7.73;;;6.70;91.20;;;;;;5086677;28;20032;-85
2021/05/03 06:07:38;;;;;;;9.53;5.80;;;6.70;91.00;;;;;;5105020;28;20035;-84
2021/05/03 06:10:06;;;;;;;8.53;6.80;;;6.70;90.90;;;;;;5102875;28;20428;-84
2021/05/03 06:12:32;;;;;;;7.30;6.00;;;6.70;90.80;;;;;;5073311;28;20035;-84
2021/05/03 06:14:58;;;;;;;8.33;6.03;;;6.70;90.80;;;;;;5071817;28;20043;-84
2021/05/03 06:17:25;;;;;;;7.80;5.80;;;6.80;90.80;;;;;;5104801;28;20040;-84
2021/05/03 06:19:52;;;;;;;7.37;5.10;;;6.80;90.80;;;;;;5102996;28;20035;-84
2021/05/03 06:22:18;;;;;;;7.27;5.77;;;6.90;90.70;;;;;;5104110;28;20486;-84
2021/05/03 06:24:45;;;;;;;6.80;5.17;;;6.90;90.60;;;;;;5087594;28;20482;-84
2021/05/03 06:27:11;;;;;;;10.10;5.90;;;6.90;90.50;;;;;;5104749;28;20052;-84
2021/05/03 06:29:39;;;;;;;8.85;6.03;;;7.00;90.40;;;;;;5104675;28;20044;-84
2021/05/03 06:32:06;;;;;;;9.40;5.88;;;7.00;90.20;;;;;;5089435;28;20032;-83
2021/05/03 06:34:32;;;;;;;9.60;5.37;;;7.10;90.20;;;;;;5087700;28;20386;-83
2021/05/03 06:36:59;;;;;;;8.00;5.70;;;7.20;90.10;;;;;;5105700;28;20040;-83
2021/05/03 06:39:26;;;;;;;6.67;5.00;;;7.30;90.00;;;;;;5085308;28;20039;-83
2021/05/03 06:41:53;;;;;;;11.45;6.05;;;7.30;89.70;;;;;;5103712;28;20055;-83
2021/05/03 06:44:20;;;;;;;8.73;5.60;;;7.40;89.30;;;;;;5086818;28;20036;-83
2021/05/03 06:46:47;;;;;;;7.77;5.50;;;7.50;88.80;;;;;;5104389;28;20529;-82
2021/05/03 06:49:14;;;;;;;7.17;4.87;;;7.60;88.50;;;;;;5101343;28;20039;-83
2021/05/03 06:51:40;;;;;;;7.90;5.00;;;7.70;88.20;;;;;;5085131;28;20379;-82
2021/05/03 06:54:07;;;;;;;13.47;5.03;;;7.80;87.80;;;;;;5099333;28;20055;-82
2021/05/03 06:56:33;;;;;;;8.57;5.38;;;7.90;87.40;;;;;;5098447;28;20043;-81
2021/05/03 06:59:00;;;;;;;7.23;4.80;;;8.00;86.80;;;;;;5081258;28;20035;-84
2021/05/03 07:01:27;;;;;;;6.88;4.57;;;8.20;86.30;;;;;;5098749;28;20470;-83
2021/05/03 07:03:53;;;;;;;7.20;4.87;;;8.30;86.00;;;;;;5098351;28;20039;-83
2021/05/03 07:06:19;;;;;;;6.93;4.43;;;8.40;85.50;;;;;;5067473;28;20075;-83
2021/05/03 07:08:46;;;;;;;5.60;3.40;;;8.50;85.10;;;;;;5099324;28;20402;-83
2021/05/03 07:11:16;;;;;;;5.03;3.78;;;8.50;84.80;;;;;;5086414;28;20051;-82
2021/05/03 07:13:42;;;;;;;5.45;4.10;;;8.60;84.50;;;;;;5086300;28;20394;-82
2021/05/03 07:16:09;;;;;;;7.05;3.95;;;8.70;84.20;;;;;;5087460;28;20047;-83
2021/05/03 07:18:35;;;;;;;5.93;3.50;;;8.80;83.60;;;;;;5099616;28;20071;-82
2021/05/03 07:21:03;;;;;;;9.18;4.35;;;8.90;82.90;;;;;;5080635;28;20399;-82
2021/05/03 07:23:30;;;;;;;4.40;2.90;;;8.90;81.90;;;;;;5066955;28;20032;-82
2021/05/03 07:25:58;;;;;;;9.13;4.10;;;9.10;81.80;;;;;;5076680;28;20048;-82
2021/05/03 07:28:24;;;;;;;5.15;3.42;;;9.10;81.20;;;;;;5095241;28;20032;-82
2021/05/03 07:30:57;;;;;;;4.30;3.08;;;9.20;80.60;;;;;;5098745;28;20035;-83
2021/05/03 07:33:26;;;;;;;7.50;4.10;;;9.30;80.60;;;;;;5098071;28;20559;-83
2021/05/03 07:35:53;;;;;;;8.32;4.38;;;9.40;79.90;;;;;;5097113;28;20042;-83
2021/05/03 07:38:19;;;;;;;6.95;4.32;;;9.50;79.50;;;;;;5100180;28;20046;-82
2021/05/03 07:40:46;;;;;;;6.07;3.88;;;9.70;79.40;;;;;;5084361;28;20035;-83
2021/05/03 07:43:13;;;;;;;6.45;4.30;;;9.80;79.10;;;;;;5104125;28;20051;-83
2021/05/03 07:45:40;;;;;;;9.15;5.47;;;10.00;78.50;;;;;;5086795;28;20040;-81
2021/05/03 07:48:07;;;;;;;9.07;4.40;;;10.20;77.90;;;;;;5099073;28;20039;-81
2021/05/03 07:50:34;;;;;;;7.38;5.80;;;10.40;77.70;;;;;;5085624;28;20393;-81
2021/05/03 07:53:00;;;;;;;6.38;4.90;;;10.50;76.30;;;;;;5086024;28;20580;-81
2021/05/03 07:55:27;;;;;;;6.88;5.47;;;10.70;76.20;;;;;;5083811;28;20055;-81
2021/05/03 07:57:54;;;;;;;9.35;6.53;;;10.80;76.00;;;;;;5063595;28;20573;-81
2021/05/03 08:00:20;;;;;;;9.98;6.18;;;11.00;75.40;;;;;;5098001;28;20047;-81
2021/05/03 08:02:47;;;;;;;8.32;5.88;;;11.20;75.10;;;;;;5101541;28;20047;-80
2021/05/03 08:05:24;;;;;;;9.75;5.90;;;11.30;75.00;;;;;;5101130;28;20046;-80
2021/05/03 08:07:51;;;;;;;9.38;7.75;;;11.50;74.70;;;;;;5064538;28;20382;-81
2021/05/03 08:10:18;;;;;;;10.55;8.73;;;11.70;74.00;;;;;;5064743;28;20062;-81
2021/05/03 08:12:45;;;;;;;12.65;7.57;;;11.80;73.90;;;;;;5100355;28;20024;-80
2021/05/03 08:15:13;;;;;;;11.73;9.23;;;12.00;74.00;;;;;;5059919;28;20489;-80
2021/05/03 08:17:43;;;;;;;12.57;9.88;;;12.20;73.80;;;;;;5102623;28;20050;-81
2021/05/03 08:20:16;;;;;;;12.98;9.93;;;12.40;72.70;;;;;;5090024;28;20066;-83
2021/05/03 08:22:43;;;;;;;13.87;11.27;;;12.50;72.30;;;;;;5082346;28;20054;-83
2021/05/03 08:25:11;;;;;;;11.50;9.75;;;12.80;71.70;;;;;;5104113;28;20035;-82
2021/05/03 08:27:37;;;;;;;14.05;10.75;;;12.90;71.50;;;;;;5101783;28;20070;-82
2021/05/03 08:30:06;;;;;;;15.77;11.85;;;13.10;71.30;;;;;;5082523;28;20036;-82
2021/05/03 08:32:32;;;;;;;18.45;13.70;;;13.20;70.90;;;;;;5101779;28;20854;-82
2021/05/03 08:34:59;;;;;;;13.57;11.90;;;13.30;70.40;;;;;;5085962;28;20043;-82
2021/05/03 08:37:26;;;;;;;12.85;11.52;;;13.40;69.90;;;;;;5101801;28;20574;-85
2021/05/03 08:39:52;;;;;;;12.98;10.93;;;13.50;69.50;;;;;;5083446;28;20051;-80
2021/05/03 08:42:19;;;;;;;16.70;13.05;;;13.60;69.70;;;;;;5101579;28;20031;-83
2021/05/03 08:44:47;;;;;;;17.95;14.52;;;13.70;69.00;;;;;;5083399;28;20039;-83
2021/05/03 08:47:14;;;;;;;13.02;11.70;;;13.70;68.20;;;;;;5085769;28;20043;-83
2021/05/03 08:52:20;;;;;;;12.77;11.07;;;13.70;68.10;;;;;;5085931;28;20040;-83
2021/05/03 08:54:47;;;;;;;15.00;12.07;;;13.80;68.10;;;;;;5086976;28;20482;-83
2021/05/03 08:57:14;;;;;;;12.43;10.25;;;13.90;68.00;;;;;;5084740;28;20036;-83
2021/05/03 08:59:42;;;;;;;15.35;12.50;;;13.90;67.60;;;;;;5100910;28;20065;-83
2021/05/03 09:02:14;;;;;;;13.95;11.75;;;14.00;67.20;;;;;;5085985;28;20043;-82
2021/05/03 09:04:41;;;;;;;11.32;10.23;;;14.20;67.50;;;;;;5069417;28;20039;-83
2021/05/03 09:07:07;;;;;;;13.77;11.32;;;14.30;67.60;;;;;;5100322;28;20426;-84
2021/05/03 09:09:42;;;;;;;12.98;11.63;;;14.50;66.90;;;;;;5097676;28;20031;-83
2021/05/03 09:12:20;;;;;;;13.63;11.98;;;14.70;66.40;;;;;;5085614;28;20048;-83
2021/05/03 09:14:58;;;;;;;13.23;10.38;;;14.70;65.70;;;;;;5066056;28;20042;-84
2021/05/03 09:17:38;;;;;;;12.93;11.52;;;14.80;65.40;;;;;;5083713;28;20051;-84
2021/05/03 09:20:07;;;;;;;13.25;11.90;;;15.00;65.30;;;;;;5070083;28;20039;-83
2021/05/03 09:22:42;;;;;;;12.93;11.13;;;15.10;64.10;;;;;;5088509;28;20046;-84
2021/05/03 09:25:27;;;;;;;13.40;11.10;;;15.20;64.00;;;;;;5089097;28;20059;-84
2021/05/03 09:28:08;;;;;;;12.48;11.27;;;15.30;63.70;;;;;;5105807;28;20146;-84
2021/05/03 09:30:40;;;;;;;12.13;10.40;;;15.40;63.50;;;;;;5087533;28;20054;-84
2021/05/03 09:33:24;;;;;;;13.27;10.57;;;15.60;63.20;;;;;;5088679;28;20047;-84
2021/05/03 09:36:01;;;;;;;10.70;9.60;;;15.80;62.60;;;;;;5105434;28;20038;-84
2021/05/03 09:38:41;;;;;;;14.48;10.02;;;15.80;61.90;;;;;;5092002;28;20079;-83
2021/05/03 09:41:24;;;;;;;11.70;9.88;;;15.90;61.70;;;;;;5106009;28;20046;-84
2021/05/03 09:43:52;;;;;;;10.52;9.23;;;16.10;60.70;;;;;;5104915;28;20615;-80
2021/05/03 09:46:29;;;;;;;12.25;10.88;;;16.20;60.50;;;;;;5105887;28;20051;-80
2021/05/03 09:48:58;;;;;;;12.00;9.88;;;16.20;59.60;;;;;;5101154;28;20062;-84
2021/05/03 09:51:46;;;;;;;12.20;10.93;;;16.30;59.00;;;;;;5087878;28;20484;-83
2021/05/03 09:54:31;;;;;;;12.93;10.50;;;16.40;59.00;;;;;;5102733;28;20062;-83
2021/05/03 09:57:01;;;;;;;11.43;8.88;;;16.50;59.10;;;;;;5107677;28;20035;-81
2021/05/03 09:59:52;;;;;;;11.02;9.80;;;16.70;58.70;;;;;;5099914;28;20643;-80
2021/05/03 10:02:24;;;;;;;13.68;10.27;;;16.90;57.80;;;;;;5085570;28;20462;-81
2021/05/03 10:05:17;;;;;;;10.55;8.60;;;17.00;56.50;;;;;;5102620;28;20067;-81
2021/05/03 10:07:52;;;;;;;8.75;7.82;;;17.10;56.10;;;;;;5084892;28;20490;-81
2021/05/03 10:10:22;;;;;;;10.32;8.07;;;17.10;54.70;;;;;;5084103;28;20046;-81
2021/05/03 10:12:50;;;;;;;13.00;9.57;;;17.00;55.20;;;;;;5105208;28;20046;-81
2021/05/03 10:15:18;;;;;;;11.13;8.20;;;16.90;54.80;;;;;;5089617;28;20048;-80
2021/05/03 10:17:45;;;;;;;15.15;9.32;;;16.90;55.10;;;;;;5101977;28;20803;-84
2021/05/03 10:20:17;;;;;;;11.02;7.75;;;17.00;54.90;;;;;;5099765;28;20059;-81
2021/05/03 10:22:45;;;;;;;10.63;9.52;;;17.20;54.40;;;;;;5085049;28;20039;-81
2021/05/03 10:25:16;;;;;;;11.63;9.05;;;17.40;54.00;;;;;;5101850;28;20047;-85
2021/05/03 10:27:48;;;;;;;11.90;8.35;;;17.60;53.80;;;;;;5103752;28;20047;-83
2021/05/03 10:30:25;;;;;;;9.80;8.32;;;17.80;53.20;;;;;;5084056;28;20036;-83
2021/05/03 10:33:09;;;;;;;13.20;9.95;;;17.80;52.40;;;;;;5097595;28;20051;-81
2021/05/03 10:35:49;;;;;;;9.88;8.98;;;17.90;52.30;;;;;;5088879;28;20055;-80
2021/05/03 10:38:39;;;;;;;8.30;6.68;;;18.00;52.30;;;;;;5073441;28;20050;-82
2021/05/03 10:41:34;;;;;;;9.88;8.45;;;18.10;52.20;;;;;;5110697;28;20402;-82
2021/05/03 10:44:12;;;;;;;8.65;7.78;;;18.20;51.10;;;;;;5074232;28;20047;-82
2021/05/03 10:49:21;;;;;;;9.70;7.65;;;18.10;50.40;;;;;;5089031;28;20394;-82
2021/05/03 10:51:53;;;;;;;8.50;6.88;;;18.10;50.10;;;;;;5101689;28;20046;-84
2021/05/03 10:56:53;;;;;;;;;;;18.20;49.00;;;;;;5085974;28;20042;-82
2021/05/03 10:59:19;;;;;;;9.05;8.20;;;18.30;49.30;;;;;;5066660;28;20378;-82
2021/05/03 11:01:52;;;;;;;10.10;8.40;;;18.40;48.30;;;;;;5085431;28;20052;-82
2021/05/03 11:04:22;;;;;;;10.30;8.65;;;18.50;48.20;;;;;;5104274;28;20048;-82
2021/05/03 11:06:48;;;;;;;9.43;8.48;;;18.60;48.20;;;;;;5102067;28;20069;-82
2021/05/03 11:09:36;;;;;;;10.60;8.13;;;18.60;47.50;;;;;;5102477;28;20054;-82
2021/05/03 11:12:06;;;;;;;10.23;8.57;;;18.90;47.50;;;;;;5105087;28;20036;-83
2021/05/03 11:14:33;;;;;;;13.90;9.85;;;19.10;46.10;;;;;;5085856;28;20043;-83
2021/05/03 11:17:02;;;;;;;8.88;7.90;;;19.10;45.80;;;;;;5084273;28;20030;-83
2021/05/03 11:22:16;;;;;;;9.02;8.10;;;18.60;46.00;;;;;;5101140;28;20665;-83
2021/05/03 11:25:02;;;;;;;9.55;7.38;;;18.40;46.10;;;;;;5102393;28;20055;-83
2021/05/03 11:30:40;;;;;;;7.38;6.30;;;18.80;45.20;;;;;;5101136;28;20082;-82
2021/05/03 11:33:16;;;;;;;7.30;6.15;;;19.00;44.50;;;;;;5102436;28;20047;-83
2021/05/03 11:35:57;;;;;;;8.65;7.75;;;19.10;44.30;;;;;;5055548;28;20028;-86
2021/05/03 11:38:44;;;;;;;8.38;7.57;;;19.10;43.30;;;;;;5083716;28;20039;-83
2021/05/03 11:41:43;;;;;;;7.13;6.13;;;18.80;43.90;;;;;;5100508;28;20070;-83
2021/05/03 11:44:21;;;;;;;8.02;6.53;;;18.50;44.60;;;;;;5086060;28;20055;-80
2021/05/03 11:46:48;;;;;;;6.57;5.93;;;18.30;44.30;;;;;;5100611;28;20046;-82
2021/05/03 11:49:17;;;;;;;9.45;6.50;;;18.30;44.20;;;;;;5079447;28;20047;-83
2021/05/03 11:51:57;;;;;;;8.05;7.00;;;18.40;44.50;;;;;;5101239;28;20043;-84
2021/05/03 11:54:27;;;;;;;7.05;5.30;;;18.70;43.80;;;;;;5100469;28;20039;-84
2021/05/03 11:56:58;;;;;;;7.35;6.60;;;18.90;43.20;;;;;;5101207;28;20948;-82
2021/05/03 11:59:25;;;;;;;5.85;5.25;;;18.90;42.00;;;;;;5100022;28;20058;-82
2021/05/03 12:02:12;;;;;;;6.40;4.65;;;18.80;42.20;;;;;;5084802;28;20036;-82
2021/05/03 12:04:40;;;;;;;7.45;5.93;;;19.20;42.60;;;;;;5083493;28;20036;-82
2021/05/03 12:07:13;;;;;;;8.18;6.10;;;19.50;41.60;;;;;;5102288;28;20085;-83
2021/05/03 12:09:40;;;;;;;5.35;4.72;;;19.60;41.10;;;;;;5098185;28;20055;-83
2021/05/03 12:12:07;;;;;;;6.50;5.50;;;19.60;41.10;;;;;;5082567;28;20335;-82
2021/05/03 12:14:39;;;;;;;8.13;5.38;;;19.60;41.00;;;;;;5066022;28;20071;-83
2021/05/03 12:17:26;;;;;;;5.00;4.50;;;19.40;41.20;;;;;;5098304;28;20058;-82
2021/05/03 12:19:56;;;;;;;6.03;4.50;;;19.20;41.00;;;;;;5098911;28;20585;-81
2021/05/03 12:22:24;;;;;;;6.22;4.32;;;19.00;41.10;;;;;;5100135;28;20039;-80
2021/05/03 12:24:54;;;;;;;5.05;4.55;;;18.90;40.60;;;;;;5070928;28;20048;-81
2021/05/03 12:27:20;;;;;;;7.82;7.10;;;18.80;40.60;;;;;;5100800;28;20035;-81
2021/05/03 12:29:47;;;;;;;7.03;6.43;;;18.80;40.20;;;;;;5096836;28;20035;-81
2021/05/03 12:32:18;;;;;;;8.02;6.82;;;18.80;40.80;;;;;;5097164;28;20066;-81
2021/05/03 12:34:49;;;;;;;6.88;6.18;;;18.90;40.90;;;;;;5097904;28;20044;-81
2021/05/03 12:37:18;;;;;;;6.13;5.60;;;19.00;40.90;;;;;;5084259;28;20036;-82
2021/05/03 12:40:02;;;;;;;7.00;6.22;;;19.10;41.20;;;;;;5099264;28;20035;-82
2021/05/03 12:42:34;;;;;;;8.00;6.70;;;19.30;40.60;;;;;;5084656;28;20032;-82
2021/05/03 12:45:12;;;;;;;8.15;5.97;;;19.40;40.60;;;;;;5078194;28;20047;-81
2021/05/03 12:48:04;;;;;;;8.25;7.40;;;19.30;40.40;;;;;;5098391;28;20391;-81
2021/05/03 12:50:41;;;;;;;7.70;7.00;;;19.00;41.00;;;;;;5082368;28;20051;-80
2021/05/03 12:58:40;;;;;;;7.97;5.70;;;19.40;41.50;;;;;;5101972;28;20039;-86
2021/05/03 13:01:33;;;;;;;10.32;7.10;;;20.30;40.40;;;;;;5089201;28;20052;-83
2021/05/03 13:04:05;;;;;;;6.60;5.90;;;21.20;38.20;;;;;;5104412;28;20047;-83
2021/05/03 13:22:28;;;;;;;6.40;3.92;;;20.90;37.60;;;;;;5106433;28;20128;-86
2021/05/03 13:24:42;;;;;;;7.97;5.20;;;21.20;36.70;;;;;;5107794;28;20242;-84
2021/05/03 13:29:45;;;;;;;6.72;6.13;;;21.40;36.20;;;;;;5103368;28;20055;-83
2021/05/03 13:32:20;;;;;;;5.90;4.97;;;21.40;35.80;;;;;;5101257;28;20958;-82
2021/05/03 13:34:48;;;;;;;6.55;4.72;;;21.40;36.00;;;;;;5088330;28;20466;-84
2021/05/03 13:37:16;;;;;;;5.95;5.35;;;21.60;35.50;;;;;;5082634;28;20390;-83
2021/05/03 13:39:45;;;;;;;6.60;6.00;;;21.50;35.00;;;;;;5082102;28;20121;-82
2021/05/03 13:42:14;;;;;;;5.68;4.78;;;21.20;35.40;;;;;;5068553;28;20402;-81
2021/05/03 13:44:41;;;;;;;5.05;4.55;;;21.10;35.50;;;;;;5087932;28;20035;-82
2021/05/03 13:47:09;;;;;;;7.32;6.07;;;20.90;35.90;;;;;;5102045;28;20508;-82
2021/05/03 13:49:36;;;;;;;5.25;4.35;;;20.70;35.90;;;;;;5101168;28;20035;-82
2021/05/03 13:52:08;;;;;;;5.38;4.88;;;20.50;36.20;;;;;;5086775;28;20055;-82
2021/05/03 13:54:35;;;;;;;4.35;3.95;;;20.30;36.40;;;;;;5070138;28;20047;-82
2021/05/03 13:57:07;;;;;;;5.00;4.50;;;20.20;36.60;;;;;;5107370;28;20482;-84